Sandy Ridge, NC (27046)

2:26 AM EDT on May 29, 2015 (GMT -0400)
Foothills Weather | | Change Station
CLOSE
Current Station
Personal Weather Station
Location: Eastern Stokes Cty, NC
Elevation: 950 ft
Nearby Weather Stations

Elev 950 ft 36.45 °N, 80.05 °W | Updated 6 minutes ago

Partly Cloudy
Partly Cloudy
65.6 °F
Feels Like 65.6 °F
N
0.0
Wind Variable Wind from North
Gusts 0.0 mph

Today
High -- | Low -- °F
--% Chance of Precip.
Yesterday
High -- | Low -- °F
Precip. -- in
6:04 AM 8:30 PM
Waxing Gibbous, 81% visible
Pressure 30.24 in
Visibility 1.5 miles
Clouds Scattered Clouds 300 ft
Dew Point 64 °F
Humidity 95%
Rainfall 0.00 in
Snow Depth Not available.
UV 0 out of 12
Pollen 7.80 out of 12
Air Quality Not available.
Flu Activity No Activity
METAR KMTV 290615Z AUTO 00000KT 1 1/2SM BR SCT003 18/18 A3024 RMK AO2 VIS 1/2V5 T01800180

More Conditions Fewer Conditions

Pressure 30.24 in
Visibility 1.5 miles
Clouds Scattered Clouds 300 ft
Dew Point 64 °F
Humidity 95%
Rainfall 0.00 in
Snow Depth Not available.
UV 0 out of 12
Pollen 7.80 out of 12
Air Quality Not available.
Flu Activity No Activity
METAR KMTV 290615Z AUTO 00000KT 1 1/2SM BR SCT003 18/18 A3024 RMK AO2 VIS 1/2V5 T01800180

More Conditions Fewer Conditions

10-Day Weather Forecast

Almanac

Astronomy

May. 29, 2015 Rise Set
Actual Time
Civil Twilight
Nautical Twilight
Astronomical Twilight
Moon
Length of Visible Light
Length of Day
Tomorrow will be .
, % of the Moon is Illuminated

Today's Extremes

State Highs State Lows

Community

WunderPhotos

Upload Photos

1,825,215 photos uploaded!

WunderBlogs® & News

Nearby

Air Quality

  Air Quality AQ Index Pollutant
Not available.

Snow Depth

Station Depth Elevation

Earthquake Activity

City Distance Mag. Time & Date
Minimum magnitude displayed is 2.5.

Coastal Water Temperatures

Place Temperature

Stations

Nearby Weather Stations

Station Location Temp. Windchill Dew Point Humidity Wind Precip. Elev Updated Type